sensor_id;sensor_type;location;lat;lon;timestamp;pressure;altitude;pressure_sealevel;temperature;humidity
61408;BME280;47274;43.054;25.146;2023-09-08T00:02:16;96117.22;;;18.20;61.01
61408;BME280;47274;43.054;25.146;2023-09-08T00:04:42;96109.88;;;18.24;61.12
61408;BME280;47274;43.054;25.146;2023-09-08T00:07:08;96135.66;;;18.55;61.04
61408;BME280;47274;43.054;25.146;2023-09-08T00:09:33;96111.47;;;18.40;60.42
61408;BME280;47274;43.054;25.146;2023-09-08T00:11:59;96099.19;;;18.48;60.93
61408;BME280;47274;43.054;25.146;2023-09-08T00:14:25;96120.69;;;18.57;60.67
61408;BME280;47274;43.054;25.146;2023-09-08T00:16:52;96137.53;;;18.76;60.30
61408;BME280;47274;43.054;25.146;2023-09-08T00:19:20;96118.53;;;18.76;60.29
61408;BME280;47274;43.054;25.146;2023-09-08T00:21:46;96117.06;;;18.88;59.88
61408;BME280;47274;43.054;25.146;2023-09-08T00:24:12;96127.72;;;18.93;59.72
61408;BME280;47274;43.054;25.146;2023-09-08T00:26:37;96133.56;;;18.95;59.82
61408;BME280;47274;43.054;25.146;2023-09-08T00:29:05;96074.34;;;18.61;59.76
61408;BME280;47274;43.054;25.146;2023-09-08T00:31:31;96127.13;;;18.61;60.51
61408;BME280;47274;43.054;25.146;2023-09-08T00:33:57;96123.59;;;18.33;61.05
61408;BME280;47274;43.054;25.146;2023-09-08T00:36:23;96119.88;;;17.97;61.49
61408;BME280;47274;43.054;25.146;2023-09-08T00:38:48;96137.34;;;18.18;62.44
61408;BME280;47274;43.054;25.146;2023-09-08T00:41:23;96121.59;;;18.20;62.32
61408;BME280;47274;43.054;25.146;2023-09-08T00:43:52;96120.31;;;18.45;61.57
61408;BME280;47274;43.054;25.146;2023-09-08T00:46:17;96122.38;;;18.65;60.57
61408;BME280;47274;43.054;25.146;2023-09-08T00:48:43;96153.03;;;18.84;60.59
61408;BME280;47274;43.054;25.146;2023-09-08T00:51:10;96144.06;;;18.87;60.11
61408;BME280;47274;43.054;25.146;2023-09-08T00:53:36;96124.25;;;18.86;59.71
61408;BME280;47274;43.054;25.146;2023-09-08T00:56:02;96116.56;;;18.78;60.06
61408;BME280;47274;43.054;25.146;2023-09-08T00:58:29;96149.84;;;19.04;59.93
61408;BME280;47274;43.054;25.146;2023-09-08T01:00:55;96149.97;;;18.96;59.98
61408;BME280;47274;43.054;25.146;2023-09-08T01:03:24;96151.31;;;18.91;60.11
61408;BME280;47274;43.054;25.146;2023-09-08T01:05:50;96143.09;;;18.88;59.90
61408;BME280;47274;43.054;25.146;2023-09-08T01:08:16;96141.72;;;18.92;60.18
61408;BME280;47274;43.054;25.146;2023-09-08T01:10:43;96100.41;;;18.67;60.62
61408;BME280;47274;43.054;25.146;2023-09-08T01:13:09;96126.59;;;18.81;60.52
61408;BME280;47274;43.054;25.146;2023-09-08T01:15:35;96128.13;;;18.75;60.71
61408;BME280;47274;43.054;25.146;2023-09-08T01:18:00;96139.53;;;18.74;60.96
61408;BME280;47274;43.054;25.146;2023-09-08T01:23:21;96138.97;;;18.79;61.21
61408;BME280;47274;43.054;25.146;2023-09-08T01:25:53;96114.78;;;18.63;61.02
61408;BME280;47274;43.054;25.146;2023-09-08T01:28:20;96136.00;;;18.82;60.65
61408;BME280;47274;43.054;25.146;2023-09-08T01:30:47;96120.94;;;18.62;60.57
61408;BME280;47274;43.054;25.146;2023-09-08T01:33:14;96128.22;;;18.67;61.04
61408;BME280;47274;43.054;25.146;2023-09-08T01:35:40;96130.16;;;18.65;61.14
61408;BME280;47274;43.054;25.146;2023-09-08T01:38:06;96109.03;;;18.38;61.43
61408;BME280;47274;43.054;25.146;2023-09-08T01:40:31;96095.16;;;18.31;61.86
61408;BME280;47274;43.054;25.146;2023-09-08T01:43:01;96132.59;;;18.52;62.22
61408;BME280;47274;43.054;25.146;2023-09-08T01:45:29;96090.97;;;18.30;61.33
61408;BME280;47274;43.054;25.146;2023-09-08T01:47:54;96119.16;;;18.48;61.72
61408;BME280;47274;43.054;25.146;2023-09-08T01:50:20;96109.69;;;18.40;61.44
61408;BME280;47274;43.054;25.146;2023-09-08T01:52:48;96136.19;;;18.51;61.47
61408;BME280;47274;43.054;25.146;2023-09-08T01:55:14;96108.88;;;18.40;61.26
61408;BME280;47274;43.054;25.146;2023-09-08T01:57:42;96108.53;;;18.43;61.44
61408;BME280;47274;43.054;25.146;2023-09-08T02:00:09;96101.81;;;18.34;61.88
61408;BME280;47274;43.054;25.146;2023-09-08T02:02:39;96118.00;;;18.36;61.33
61408;BME280;47274;43.054;25.146;2023-09-08T02:05:06;96095.63;;;18.20;61.57
61408;BME280;47274;43.054;25.146;2023-09-08T02:07:32;96137.34;;;18.18;62.87
61408;BME280;47274;43.054;25.146;2023-09-08T02:09:57;96129.44;;;17.82;62.90
61408;BME280;47274;43.054;25.146;2023-09-08T02:12:23;96040.19;;;16.85;64.56
61408;BME280;47274;43.054;25.146;2023-09-08T02:14:49;96110.00;;;17.17;64.77
61408;BME280;47274;43.054;25.146;2023-09-08T02:17:15;96130.31;;;17.28;65.31
61408;BME280;47274;43.054;25.146;2023-09-08T02:19:44;96070.19;;;16.48;66.04
61408;BME280;47274;43.054;25.146;2023-09-08T02:22:10;96111.81;;;16.86;67.22
61408;BME280;47274;43.054;25.146;2023-09-08T02:24:36;96116.09;;;17.24;66.07
61408;BME280;47274;43.054;25.146;2023-09-08T02:27:02;96105.88;;;17.46;65.15
61408;BME280;47274;43.054;25.146;2023-09-08T02:29:29;96115.81;;;17.80;63.76
61408;BME280;47274;43.054;25.146;2023-09-08T02:31:56;96091.22;;;17.76;63.68
61408;BME280;47274;43.054;25.146;2023-09-08T02:34:22;96104.66;;;17.94;63.67
61408;BME280;47274;43.054;25.146;2023-09-08T02:36:48;96106.19;;;18.04;63.90
61408;BME280;47274;43.054;25.146;2023-09-08T02:39:19;96077.06;;;17.93;63.16
61408;BME280;47274;43.054;25.146;2023-09-08T02:41:45;96080.75;;;17.99;63.00
61408;BME280;47274;43.054;25.146;2023-09-08T02:44:11;96101.38;;;18.15;63.11
61408;BME280;47274;43.054;25.146;2023-09-08T02:46:36;96102.41;;;18.21;62.94
61408;BME280;47274;43.054;25.146;2023-09-08T02:49:02;96058.09;;;17.93;63.15
61408;BME280;47274;43.054;25.146;2023-09-08T02:51:31;96103.22;;;18.21;63.25
61408;BME280;47274;43.054;25.146;2023-09-08T02:53:57;96108.06;;;18.24;63.49
61408;BME280;47274;43.054;25.146;2023-09-08T02:56:23;96099.03;;;18.20;62.92
61408;BME280;47274;43.054;25.146;2023-09-08T02:58:54;96082.91;;;18.10;63.25
61408;BME280;47274;43.054;25.146;2023-09-08T03:01:20;96095.53;;;18.13;63.32
61408;BME280;47274;43.054;25.146;2023-09-08T03:03:46;96090.88;;;18.09;63.32
61408;BME280;47274;43.054;25.146;2023-09-08T03:06:14;96070.91;;;18.09;62.49
61408;BME280;47274;43.054;25.146;2023-09-08T03:08:40;96055.41;;;17.86;63.11
61408;BME280;47274;43.054;25.146;2023-09-08T03:11:08;96091.16;;;17.99;63.42
61408;BME280;47274;43.054;25.146;2023-09-08T03:13:34;96086.13;;;17.60;64.47
61408;BME280;47274;43.054;25.146;2023-09-08T03:16:05;96097.53;;;17.36;66.05
61408;BME280;47274;43.054;25.146;2023-09-08T03:18:32;96072.94;;;16.07;71.65
61408;BME280;47274;43.054;25.146;2023-09-08T03:20:58;96105.34;;;15.46;77.92
61408;BME280;47274;43.054;25.146;2023-09-08T03:23:25;96089.00;;;15.21;77.99
61408;BME280;47274;43.054;25.146;2023-09-08T03:25:51;96077.25;;;15.18;76.80
61408;BME280;47274;43.054;25.146;2023-09-08T03:28:17;96062.03;;;14.99;77.42
61408;BME280;47274;43.054;25.146;2023-09-08T03:30:43;96068.16;;;15.06;77.10
61408;BME280;47274;43.054;25.146;2023-09-08T03:33:09;96100.19;;;15.29;76.30
61408;BME280;47274;43.054;25.146;2023-09-08T03:35:37;96074.31;;;15.29;74.35
61408;BME280;47274;43.054;25.146;2023-09-08T03:38:03;96031.34;;;15.28;73.02
61408;BME280;47274;43.054;25.146;2023-09-08T03:40:29;96069.78;;;15.56;71.07
61408;BME280;47274;43.054;25.146;2023-09-08T03:42:56;96081.41;;;15.44;71.35
61408;BME280;47274;43.054;25.146;2023-09-08T03:45:22;96113.44;;;15.67;70.97
61408;BME280;47274;43.054;25.146;2023-09-08T03:47:48;96082.38;;;15.51;70.83
61408;BME280;47274;43.054;25.146;2023-09-08T03:50:14;96079.44;;;15.62;70.21
61408;BME280;47274;43.054;25.146;2023-09-08T03:52:40;96095.31;;;15.75;70.60
61408;BME280;47274;43.054;25.146;2023-09-08T03:55:06;96119.25;;;15.85;71.42
61408;BME280;47274;43.054;25.146;2023-09-08T03:57:32;96046.50;;;15.48;70.02
61408;BME280;47274;43.054;25.146;2023-09-08T03:59:58;96081.22;;;15.86;69.97
61408;BME280;47274;43.054;25.146;2023-09-08T04:02:24;96075.28;;;15.69;69.85
61408;BME280;47274;43.054;25.146;2023-09-08T04:04:49;96091.91;;;15.58;71.07
61408;BME280;47274;43.054;25.146;2023-09-08T04:07:15;96096.31;;;15.66;70.76
61408;BME280;47274;43.054;25.146;2023-09-08T04:09:41;96115.22;;;15.83;70.22
61408;BME280;47274;43.054;25.146;2023-09-08T04:12:08;96107.78;;;15.80;70.98
61408;BME280;47274;43.054;25.146;2023-09-08T04:14:36;96119.09;;;15.79;71.44
61408;BME280;47274;43.054;25.146;2023-09-08T04:17:02;96118.63;;;15.83;71.76
61408;BME280;47274;43.054;25.146;2023-09-08T04:19:28;96077.38;;;15.57;71.24
61408;BME280;47274;43.054;25.146;2023-09-08T04:21:54;96114.25;;;15.84;70.91
61408;BME280;47274;43.054;25.146;2023-09-08T04:24:20;96043.09;;;15.55;70.57
61408;BME280;47274;43.054;25.146;2023-09-08T04:26:46;96099.59;;;16.16;69.12
61408;BME280;47274;43.054;25.146;2023-09-08T04:29:12;96112.00;;;16.37;69.36
61408;BME280;47274;43.054;25.146;2023-09-08T04:31:39;96095.00;;;16.34;68.76
61408;BME280;47274;43.054;25.146;2023-09-08T04:34:05;96122.34;;;16.45;69.72
61408;BME280;47274;43.054;25.146;2023-09-08T04:36:30;96095.81;;;16.34;69.03
61408;BME280;47274;43.054;25.146;2023-09-08T04:38:57;96109.34;;;16.53;69.51
61408;BME280;47274;43.054;25.146;2023-09-08T04:41:22;96131.00;;;16.60;70.21
61408;BME280;47274;43.054;25.146;2023-09-08T04:43:48;96135.38;;;16.59;69.75
61408;BME280;47274;43.054;25.146;2023-09-08T04:46:14;96136.16;;;16.76;70.45
61408;BME280;47274;43.054;25.146;2023-09-08T04:48:40;96138.28;;;17.04;68.49
61408;BME280;47274;43.054;25.146;2023-09-08T04:51:08;96138.53;;;17.09;68.43
61408;BME280;47274;43.054;25.146;2023-09-08T04:53:34;96143.19;;;17.22;68.17
61408;BME280;47274;43.054;25.146;2023-09-08T04:56:02;96128.66;;;17.36;67.45
61408;BME280;47274;43.054;25.146;2023-09-08T04:58:29;96120.63;;;17.45;66.43
61408;BME280;47274;43.054;25.146;2023-09-08T05:00:55;96137.78;;;17.69;66.45
61408;BME280;47274;43.054;25.146;2023-09-08T05:03:21;96124.16;;;17.52;67.24
61408;BME280;47274;43.054;25.146;2023-09-08T05:05:47;96111.84;;;17.69;65.24
61408;BME280;47274;43.054;25.146;2023-09-08T05:08:14;96133.06;;;18.11;65.15
61408;BME280;47274;43.054;25.146;2023-09-08T05:10:39;96137.44;;;18.25;63.90
61408;BME280;47274;43.054;25.146;2023-09-08T05:13:05;96147.59;;;18.50;63.41
61408;BME280;47274;43.054;25.146;2023-09-08T05:15:31;96107.09;;;18.40;62.82
61408;BME280;47274;43.054;25.146;2023-09-08T05:17:57;96148.72;;;18.77;62.73
61408;BME280;47274;43.054;25.146;2023-09-08T05:20:24;96141.56;;;18.79;62.77
61408;BME280;47274;43.054;25.146;2023-09-08T05:22:50;96154.31;;;18.74;63.19
61408;BME280;47274;43.054;25.146;2023-09-08T05:25:17;96153.13;;;18.61;64.70
61408;BME280;47274;43.054;25.146;2023-09-08T05:27:43;96146.88;;;18.41;65.30
61408;BME280;47274;43.054;25.146;2023-09-08T05:30:09;96136.94;;;18.30;64.95
61408;BME280;47274;43.054;25.146;2023-09-08T05:32:36;96138.88;;;18.28;67.37
61408;BME280;47274;43.054;25.146;2023-09-08T05:35:03;96131.34;;;18.18;67.72
61408;BME280;47274;43.054;25.146;2023-09-08T05:37:29;96140.25;;;18.23;69.36
61408;BME280;47274;43.054;25.146;2023-09-08T05:40:04;96145.53;;;18.30;69.28
61408;BME280;47274;43.054;25.146;2023-09-08T05:42:30;96153.22;;;18.23;68.29
61408;BME280;47274;43.054;25.146;2023-09-08T05:44:59;96123.91;;;18.00;68.63
61408;BME280;47274;43.054;25.146;2023-09-08T05:47:26;96122.81;;;17.94;68.50
61408;BME280;47274;43.054;25.146;2023-09-08T05:49:52;96128.03;;;18.24;67.28
61408;BME280;47274;43.054;25.146;2023-09-08T05:52:18;96119.00;;;18.50;65.72
61408;BME280;47274;43.054;25.146;2023-09-08T05:54:45;96161.22;;;18.81;65.97
61408;BME280;47274;43.054;25.146;2023-09-08T05:57:11;96165.50;;;18.89;66.06
61408;BME280;47274;43.054;25.146;2023-09-08T05:59:37;96166.16;;;19.12;64.67
61408;BME280;47274;43.054;25.146;2023-09-08T06:02:03;96158.06;;;19.44;63.44
61408;BME280;47274;43.054;25.146;2023-09-08T06:04:29;96152.50;;;19.68;62.06
61408;BME280;47274;43.054;25.146;2023-09-08T06:06:57;96162.59;;;20.06;60.34
61408;BME280;47274;43.054;25.146;2023-09-08T06:09:26;96171.91;;;20.15;61.43
61408;BME280;47274;43.054;25.146;2023-09-08T06:11:53;96160.56;;;20.29;61.42
61408;BME280;47274;43.054;25.146;2023-09-08T06:14:18;96152.19;;;20.41;60.75
61408;BME280;47274;43.054;25.146;2023-09-08T06:16:47;96163.84;;;20.73;60.97
61408;BME280;47274;43.054;25.146;2023-09-08T06:19:13;96165.28;;;20.82;60.93
61408;BME280;47274;43.054;25.146;2023-09-08T06:21:38;96165.53;;;20.94;60.41
61408;BME280;47274;43.054;25.146;2023-09-08T06:24:05;96146.28;;;21.01;59.74
61408;BME280;47274;43.054;25.146;2023-09-08T06:26:32;96148.31;;;21.13;58.70
61408;BME280;47274;43.054;25.146;2023-09-08T06:28:59;96158.19;;;21.17;58.75
61408;BME280;47274;43.054;25.146;2023-09-08T06:31:24;96153.13;;;21.16;58.31
61408;BME280;47274;43.054;25.146;2023-09-08T06:33:50;96176.97;;;21.54;57.19
61408;BME280;47274;43.054;25.146;2023-09-08T06:36:18;96164.91;;;21.60;56.78
61408;BME280;47274;43.054;25.146;2023-09-08T06:38:46;96173.56;;;21.73;57.13
61408;BME280;47274;43.054;25.146;2023-09-08T06:41:12;96168.72;;;21.70;57.19
61408;BME280;47274;43.054;25.146;2023-09-08T06:43:40;96181.81;;;21.97;56.68
61408;BME280;47274;43.054;25.146;2023-09-08T06:46:13;96153.47;;;21.87;56.45
61408;BME280;47274;43.054;25.146;2023-09-08T06:48:39;96164.53;;;22.03;56.36
61408;BME280;47274;43.054;25.146;2023-09-08T06:51:05;96169.75;;;22.03;54.48
61408;BME280;47274;43.054;25.146;2023-09-08T06:53:31;96187.84;;;22.24;55.67
61408;BME280;47274;43.054;25.146;2023-09-08T06:55:58;96168.13;;;22.35;54.60
61408;BME280;47274;43.054;25.146;2023-09-08T06:58:24;96189.63;;;22.50;53.89
61408;BME280;47274;43.054;25.146;2023-09-08T07:00:50;96158.63;;;22.54;54.71
61408;BME280;47274;43.054;25.146;2023-09-08T07:03:18;96191.13;;;22.98;54.56
61408;BME280;47274;43.054;25.146;2023-09-08T07:05:45;96192.97;;;22.84;53.32
61408;BME280;47274;43.054;25.146;2023-09-08T07:08:11;96181.88;;;22.88;51.25
61408;BME280;47274;43.054;25.146;2023-09-08T07:10:38;96179.59;;;23.05;53.82
61408;BME280;47274;43.054;25.146;2023-09-08T07:13:04;96176.13;;;23.18;52.93
61408;BME280;47274;43.054;25.146;2023-09-08T07:15:33;96189.47;;;23.41;51.99
61408;BME280;47274;43.054;25.146;2023-09-08T07:18:00;96195.06;;;23.52;53.38
61408;BME280;47274;43.054;25.146;2023-09-08T07:20:26;96204.72;;;23.89;51.36
61408;BME280;47274;43.054;25.146;2023-09-08T07:22:51;96205.72;;;23.88;51.99
61408;BME280;47274;43.054;25.146;2023-09-08T07:25:17;96210.19;;;24.13;50.51
61408;BME280;47274;43.054;25.146;2023-09-08T07:27:43;96190.44;;;23.85;52.88
61408;BME280;47274;43.054;25.146;2023-09-08T07:30:09;96203.00;;;24.02;52.24
61408;BME280;47274;43.054;25.146;2023-09-08T07:32:36;96179.06;;;23.67;52.60
61408;BME280;47274;43.054;25.146;2023-09-08T07:35:05;96199.28;;;23.91;51.97
61408;BME280;47274;43.054;25.146;2023-09-08T07:37:31;96199.16;;;24.29;52.32
61408;BME280;47274;43.054;25.146;2023-09-08T07:39:57;96191.78;;;24.45;51.40
61408;BME280;47274;43.054;25.146;2023-09-08T07:42:23;96181.06;;;24.46;51.38
61408;BME280;47274;43.054;25.146;2023-09-08T07:44:51;96202.28;;;25.00;50.61
61408;BME280;47274;43.054;25.146;2023-09-08T07:47:16;96208.94;;;25.21;50.31
61408;BME280;47274;43.054;25.146;2023-09-08T07:49:45;96185.88;;;24.86;48.93
61408;BME280;47274;43.054;25.146;2023-09-08T07:52:11;96179.59;;;24.87;50.83
61408;BME280;47274;43.054;25.146;2023-09-08T07:54:37;96205.13;;;25.47;48.95
61408;BME280;47274;43.054;25.146;2023-09-08T07:57:03;96203.25;;;24.00;50.78
61408;BME280;47274;43.054;25.146;2023-09-08T07:59:28;96188.03;;;24.09;51.75
61408;BME280;47274;43.054;25.146;2023-09-08T08:01:54;96203.53;;;24.35;51.69
61408;BME280;47274;43.054;25.146;2023-09-08T08:04:20;96172.69;;;23.87;50.62
61408;BME280;47274;43.054;25.146;2023-09-08T08:06:46;96206.38;;;24.09;50.93
61408;BME280;47274;43.054;25.146;2023-09-08T08:09:13;96199.03;;;23.29;52.96
61408;BME280;47274;43.054;25.146;2023-09-08T08:11:38;96206.06;;;23.35;53.36
61408;BME280;47274;43.054;25.146;2023-09-08T08:14:04;96208.31;;;23.63;52.50
61408;BME280;47274;43.054;25.146;2023-09-08T08:16:30;96190.75;;;23.96;51.44
61408;BME280;47274;43.054;25.146;2023-09-08T08:18:56;96187.13;;;23.65;50.29
61408;BME280;47274;43.054;25.146;2023-09-08T08:21:21;96195.47;;;24.12;50.85
61408;BME280;47274;43.054;25.146;2023-09-08T08:23:49;96189.97;;;24.45;50.99
61408;BME280;47274;43.054;25.146;2023-09-08T08:26:15;96209.13;;;25.19;49.03
61408;BME280;47274;43.054;25.146;2023-09-08T08:28:41;96175.16;;;25.36;48.25
61408;BME280;47274;43.054;25.146;2023-09-08T08:31:06;96192.25;;;25.57;47.69
61408;BME280;47274;43.054;25.146;2023-09-08T08:33:32;96195.69;;;26.11;47.36
61408;BME280;47274;43.054;25.146;2023-09-08T08:35:58;96172.50;;;26.55;46.63
61408;BME280;47274;43.054;25.146;2023-09-08T08:38:24;96178.13;;;26.99;45.39
61408;BME280;47274;43.054;25.146;2023-09-08T08:40:50;96186.34;;;27.14;44.71
61408;BME280;47274;43.054;25.146;2023-09-08T08:43:16;96191.25;;;27.51;44.10
61408;BME280;47274;43.054;25.146;2023-09-08T08:45:43;96172.41;;;27.59;44.23
61408;BME280;47274;43.054;25.146;2023-09-08T08:48:10;96181.72;;;27.79;44.43
61408;BME280;47274;43.054;25.146;2023-09-08T08:50:41;96181.16;;;27.77;44.14
61408;BME280;47274;43.054;25.146;2023-09-08T08:53:08;96194.66;;;26.83;45.47
61408;BME280;47274;43.054;25.146;2023-09-08T08:55:34;96187.59;;;26.24;46.88
61408;BME280;47274;43.054;25.146;2023-09-08T08:58:04;96185.53;;;26.15;46.76
61408;BME280;47274;43.054;25.146;2023-09-08T09:00:30;96154.63;;;26.45;45.91
61408;BME280;47274;43.054;25.146;2023-09-08T09:02:57;96164.59;;;26.55;45.95
61408;BME280;47274;43.054;25.146;2023-09-08T09:05:25;96173.34;;;25.79;46.75
61408;BME280;47274;43.054;25.146;2023-09-08T09:07:51;96165.00;;;25.40;47.70
61408;BME280;47274;43.054;25.146;2023-09-08T09:10:18;96167.56;;;25.16;48.65
61408;BME280;47274;43.054;25.146;2023-09-08T09:12:44;96144.81;;;24.92;48.65
61408;BME280;47274;43.054;25.146;2023-09-08T09:15:10;96169.91;;;25.06;48.99
61408;BME280;47274;43.054;25.146;2023-09-08T09:17:37;96159.13;;;26.10;46.80
61408;BME280;47274;43.054;25.146;2023-09-08T09:20:19;96164.19;;;25.69;43.22
61408;BME280;47274;43.054;25.146;2023-09-08T09:22:47;96141.97;;;25.53;46.75
61408;BME280;47274;43.054;25.146;2023-09-08T09:25:21;96172.81;;;25.88;46.83
61408;BME280;47274;43.054;25.146;2023-09-08T09:27:55;96168.06;;;25.67;46.90
61408;BME280;47274;43.054;25.146;2023-09-08T09:30:22;96167.47;;;26.30;47.17
61408;BME280;47274;43.054;25.146;2023-09-08T09:32:57;96158.34;;;25.25;46.04
61408;BME280;47274;43.054;25.146;2023-09-08T09:35:42;96138.03;;;24.84;48.37
61408;BME280;47274;43.054;25.146;2023-09-08T09:38:08;96155.88;;;25.12;48.91
61408;BME280;47274;43.054;25.146;2023-09-08T09:40:34;96182.44;;;25.04;48.05
61408;BME280;47274;43.054;25.146;2023-09-08T09:43:00;96177.78;;;24.69;48.22
61408;BME280;47274;43.054;25.146;2023-09-08T09:45:26;96140.94;;;24.21;46.51
61408;BME280;47274;43.054;25.146;2023-09-08T09:47:52;96170.31;;;23.79;49.02
61408;BME280;47274;43.054;25.146;2023-09-08T09:50:35;96175.47;;;23.61;46.51
61408;BME280;47274;43.054;25.146;2023-09-08T09:53:11;96109.06;;;23.17;49.75
61408;BME280;47274;43.054;25.146;2023-09-08T09:55:40;96169.88;;;23.51;46.79
61408;BME280;47274;43.054;25.146;2023-09-08T09:58:06;96141.34;;;24.43;45.57
61408;BME280;47274;43.054;25.146;2023-09-08T10:00:34;96142.44;;;25.62;43.70
61408;BME280;47274;43.054;25.146;2023-09-08T10:03:04;96146.97;;;25.85;42.34
61408;BME280;47274;43.054;25.146;2023-09-08T10:05:34;96169.97;;;25.48;44.17
61408;BME280;47274;43.054;25.146;2023-09-08T10:08:00;96110.75;;;24.85;43.03
61408;BME280;47274;43.054;25.146;2023-09-08T10:10:29;96109.91;;;24.36;43.31
61408;BME280;47274;43.054;25.146;2023-09-08T10:13:02;96150.13;;;25.03;43.42
61408;BME280;47274;43.054;25.146;2023-09-08T10:15:30;96151.81;;;25.70;41.85
61408;BME280;47274;43.054;25.146;2023-09-08T10:17:57;96126.44;;;24.92;41.95
61408;BME280;47274;43.054;25.146;2023-09-08T10:20:26;96159.56;;;25.53;43.90
61408;BME280;47274;43.054;25.146;2023-09-08T10:23:12;96133.44;;;25.70;40.59
61408;BME280;47274;43.054;25.146;2023-09-08T10:25:47;96108.75;;;25.17;41.30
61408;BME280;47274;43.054;25.146;2023-09-08T10:28:19;96109.41;;;24.64;42.31
61408;BME280;47274;43.054;25.146;2023-09-08T10:30:45;96132.03;;;25.56;43.79
61408;BME280;47274;43.054;25.146;2023-09-08T10:33:12;96126.69;;;25.02;43.62
61408;BME280;47274;43.054;25.146;2023-09-08T10:35:39;96153.78;;;24.84;44.47
61408;BME280;47274;43.054;25.146;2023-09-08T10:38:27;96133.09;;;25.24;42.98
61408;BME280;47274;43.054;25.146;2023-09-08T10:41:39;96142.72;;;25.84;43.12
61408;BME280;47274;43.054;25.146;2023-09-08T10:43:42;96138.63;;;26.35;42.43
61408;BME280;47274;43.054;25.146;2023-09-08T10:46:09;96126.56;;;26.75;40.97
61408;BME280;47274;43.054;25.146;2023-09-08T10:48:47;96138.97;;;26.04;41.53
61408;BME280;47274;43.054;25.146;2023-09-08T10:51:14;96143.00;;;26.06;41.48
61408;BME280;47274;43.054;25.146;2023-09-08T10:53:40;96146.84;;;26.62;41.15
61408;BME280;47274;43.054;25.146;2023-09-08T10:56:06;96137.03;;;26.58;39.90
61408;BME280;47274;43.054;25.146;2023-09-08T10:58:34;96098.94;;;26.37;40.31
61408;BME280;47274;43.054;25.146;2023-09-08T11:01:20;96128.91;;;27.45;41.07
61408;BME280;47274;43.054;25.146;2023-09-08T11:03:52;96111.72;;;25.63;41.64
61408;BME280;47274;43.054;25.146;2023-09-08T11:06:20;96109.72;;;25.46;43.56
61408;BME280;47274;43.054;25.146;2023-09-08T11:08:50;96125.84;;;26.15;42.60
61408;BME280;47274;43.054;25.146;2023-09-08T11:11:21;96116.69;;;27.10;41.87
61408;BME280;47274;43.054;25.146;2023-09-08T11:13:47;96104.19;;;26.37;42.21
61408;BME280;47274;43.054;25.146;2023-09-08T11:16:15;96102.88;;;25.57;43.23
61408;BME280;47274;43.054;25.146;2023-09-08T11:18:43;96087.22;;;25.09;43.35
61408;BME280;47274;43.054;25.146;2023-09-08T11:21:09;96119.78;;;25.38;44.88
61408;BME280;47274;43.054;25.146;2023-09-08T11:23:36;96090.47;;;26.11;43.68
61408;BME280;47274;43.054;25.146;2023-09-08T11:26:02;96083.38;;;26.87;42.38
61408;BME280;47274;43.054;25.146;2023-09-08T11:28:28;96075.72;;;27.03;41.64
61408;BME280;47274;43.054;25.146;2023-09-08T11:31:00;96063.78;;;27.12;41.64
61408;BME280;47274;43.054;25.146;2023-09-08T11:33:34;96097.59;;;27.49;38.48
61408;BME280;47274;43.054;25.146;2023-09-08T11:35:59;96075.00;;;27.19;40.00
61408;BME280;47274;43.054;25.146;2023-09-08T11:38:26;96078.91;;;27.33;39.76
61408;BME280;47274;43.054;25.146;2023-09-08T11:40:54;96095.47;;;27.79;40.75
61408;BME280;47274;43.054;25.146;2023-09-08T11:43:20;96070.22;;;28.39;40.19
61408;BME280;47274;43.054;25.146;2023-09-08T11:45:47;96069.59;;;28.54;39.33
61408;BME280;47274;43.054;25.146;2023-09-08T11:48:14;96087.91;;;28.88;38.83
61408;BME280;47274;43.054;25.146;2023-09-08T11:50:41;96080.19;;;29.03;38.22
61408;BME280;47274;43.054;25.146;2023-09-08T11:53:08;96077.22;;;29.26;38.37
61408;BME280;47274;43.054;25.146;2023-09-08T11:55:34;96085.78;;;28.85;39.02
61408;BME280;47274;43.054;25.146;2023-09-08T11:58:02;96065.13;;;29.03;38.99
61408;BME280;47274;43.054;25.146;2023-09-08T12:00:28;96062.19;;;28.78;38.27
61408;BME280;47274;43.054;25.146;2023-09-08T12:02:55;96078.63;;;27.97;39.86
61408;BME280;47274;43.054;25.146;2023-09-08T12:05:23;96061.66;;;26.97;41.92
61408;BME280;47274;43.054;25.146;2023-09-08T12:07:54;96068.44;;;26.93;41.31
61408;BME280;47274;43.054;25.146;2023-09-08T12:10:22;96065.44;;;26.20;41.29
61408;BME280;47274;43.054;25.146;2023-09-08T12:12:50;96070.94;;;25.84;43.90
61408;BME280;47274;43.054;25.146;2023-09-08T12:15:35;96064.50;;;25.44;45.62
61408;BME280;47274;43.054;25.146;2023-09-08T12:18:11;96059.28;;;25.14;46.43
61408;BME280;47274;43.054;25.146;2023-09-08T12:20:39;96064.03;;;25.05;47.24
61408;BME280;47274;43.054;25.146;2023-09-08T12:23:15;96059.81;;;25.04;46.88
61408;BME280;47274;43.054;25.146;2023-09-08T12:25:45;96048.09;;;24.89;47.59
61408;BME280;47274;43.054;25.146;2023-09-08T12:28:11;96029.34;;;24.73;47.04
61408;BME280;47274;43.054;25.146;2023-09-08T12:30:38;95993.47;;;24.19;47.96
61408;BME280;47274;43.054;25.146;2023-09-08T12:33:04;96038.59;;;24.46;48.32
61408;BME280;47274;43.054;25.146;2023-09-08T12:35:31;96054.34;;;24.76;48.54
61408;BME280;47274;43.054;25.146;2023-09-08T12:38:02;96035.44;;;24.86;48.61
61408;BME280;47274;43.054;25.146;2023-09-08T12:40:30;96047.19;;;25.13;47.27
61408;BME280;47274;43.054;25.146;2023-09-08T12:42:56;96001.44;;;25.02;47.07
61408;BME280;47274;43.054;25.146;2023-09-08T12:45:25;96023.22;;;25.33;47.34
61408;BME280;47274;43.054;25.146;2023-09-08T12:47:51;96025.06;;;25.21;47.09
61408;BME280;47274;43.054;25.146;2023-09-08T12:50:17;96035.00;;;25.77;47.24
61408;BME280;47274;43.054;25.146;2023-09-08T12:52:43;96032.66;;;25.99;46.10
61408;BME280;47274;43.054;25.146;2023-09-08T12:55:12;96047.97;;;26.03;46.08